Time;durP1;ratioP1;P1;durP2;ratioP2;P2;SDS_P1;SDS_P2;PMS_P1;PMS_P2;Temp;Humidity;BMP_temperature;BMP_pressure;BME280_temperature;BME280_humidity;BME280_pressure;Samples;Min_cycle;Max_cycle;Signal;HPM_P1;HPM_P2
2021/09/27 00:00:55;;;;;;;17.20;14.53;;;17.80;99.90;;;;;;5025900;28;20433;-86
2021/09/27 00:03:22;;;;;;;17.33;14.60;;;17.70;99.90;;;;;;5023736;28;20554;-86
2021/09/27 00:05:49;;;;;;;18.70;14.70;;;17.60;99.90;;;;;;5023864;28;20460;-86
2021/09/27 00:08:18;;;;;;;17.57;15.17;;;17.50;99.90;;;;;;5003250;28;20456;-86
2021/09/27 00:10:48;;;;;;;18.70;14.17;;;17.60;99.90;;;;;;5004884;28;20551;-86
2021/09/27 00:13:15;;;;;;;16.60;14.70;;;17.50;99.90;;;;;;5003757;28;20558;-86
2021/09/27 00:15:46;;;;;;;16.83;15.00;;;17.50;99.90;;;;;;5016468;28;20458;-86
2021/09/27 00:18:14;;;;;;;18.60;15.33;;;17.40;99.90;;;;;;5023776;28;20403;-86
2021/09/27 00:20:43;;;;;;;19.60;15.33;;;17.40;99.90;;;;;;5020114;28;20431;-86
2021/09/27 00:23:11;;;;;;;18.70;14.00;;;17.50;99.90;;;;;;5022859;28;20487;-86
2021/09/27 00:25:39;;;;;;;21.00;15.63;;;17.40;99.90;;;;;;5022565;28;20450;-87
2021/09/27 00:28:06;;;;;;;18.57;15.73;;;17.30;99.90;;;;;;5023975;28;20540;-86
2021/09/27 00:30:34;;;;;;;16.43;14.70;;;17.30;99.90;;;;;;5023500;28;20462;-86
2021/09/27 00:33:03;;;;;;;16.97;13.60;;;17.30;99.90;;;;;;5023346;28;20494;-86
2021/09/27 00:35:33;;;;;;;22.07;14.90;;;17.30;99.90;;;;;;5023763;28;21003;-86
2021/09/27 00:38:01;;;;;;;18.20;15.57;;;17.40;99.90;;;;;;5022983;28;20457;-86
2021/09/27 00:40:30;;;;;;;18.53;14.93;;;17.40;99.90;;;;;;5023663;28;20427;-86
2021/09/27 00:42:59;;;;;;;15.60;13.10;;;17.40;99.90;;;;;;5023889;28;20457;-86
2021/09/27 00:45:27;;;;;;;18.80;15.00;;;17.40;99.90;;;;;;5023508;28;20984;-86
2021/09/27 00:47:54;;;;;;;15.73;13.57;;;17.30;99.90;;;;;;5024606;28;20427;-87
2021/09/27 00:50:25;;;;;;;18.07;15.43;;;17.30;99.90;;;;;;5025137;28;20452;-86
2021/09/27 00:52:53;;;;;;;17.93;13.87;;;17.30;99.90;;;;;;5031876;28;20417;-86
2021/09/27 00:55:24;;;;;;;17.47;14.23;;;17.30;99.90;;;;;;5020914;28;20535;-86
2021/09/27 00:57:51;;;;;;;17.93;15.33;;;17.30;99.90;;;;;;5018464;28;20412;-86
2021/09/27 01:00:23;;;;;;;16.23;14.27;;;17.40;99.90;;;;;;5018642;28;20857;-86
2021/09/27 01:02:50;;;;;;;16.63;13.80;;;17.50;99.90;;;;;;5018610;28;20429;-87
2021/09/27 01:05:21;;;;;;;17.97;15.27;;;17.50;99.90;;;;;;5019022;28;20473;-86
2021/09/27 01:07:54;;;;;;;18.50;15.60;;;17.50;99.90;;;;;;5021492;28;20450;-87
2021/09/27 01:10:50;;;;;;;18.50;15.20;;;17.30;99.90;;;;;;5017031;28;20418;-86
2021/09/27 01:13:35;;;;;;;18.83;14.90;;;17.20;99.90;;;;;;4994210;28;20549;-86
2021/09/27 01:16:11;;;;;;;16.53;14.63;;;17.20;99.90;;;;;;5002055;28;20456;-86
2021/09/27 01:18:54;;;;;;;16.73;14.80;;;17.10;99.90;;;;;;5021415;28;20521;-86
2021/09/27 01:21:37;;;;;;;17.97;13.70;;;17.10;99.90;;;;;;5021561;28;20422;-86
2021/09/27 01:24:35;;;;;;;16.13;14.37;;;17.20;99.90;;;;;;5022714;28;20476;-85
2021/09/27 01:27:13;;;;;;;19.40;15.20;;;17.10;99.90;;;;;;5022327;28;20437;-84
2021/09/27 01:30:13;;;;;;;18.53;15.73;;;17.10;99.90;;;;;;5007767;28;20598;-87
2021/09/27 01:32:45;;;;;;;19.47;14.90;;;17.10;99.90;;;;;;5025439;28;20527;-86
2021/09/27 01:35:29;;;;;;;18.77;14.63;;;17.20;99.90;;;;;;5023680;28;20499;-85
2021/09/27 01:38:15;;;;;;;15.30;13.10;;;17.20;99.90;;;;;;5023640;28;20452;-86
2021/09/27 01:40:55;;;;;;;17.60;15.10;;;17.20;99.90;;;;;;5024856;28;20407;-86
2021/09/27 01:43:27;;;;;;;16.47;14.53;;;17.20;99.90;;;;;;5024347;28;20426;-86
2021/09/27 01:46:00;;;;;;;17.67;14.80;;;17.20;99.90;;;;;;5022509;28;20441;-86
2021/09/27 01:48:32;;;;;;;18.73;14.63;;;17.30;99.90;;;;;;5023673;28;20472;-85
2021/09/27 01:51:04;;;;;;;16.00;13.37;;;17.40;99.90;;;;;;5024256;28;20430;-86
2021/09/27 01:53:38;;;;;;;15.60;13.30;;;17.40;99.90;;;;;;5024241;28;20456;-86
2021/09/27 01:56:07;;;;;;;16.10;14.40;;;17.40;99.90;;;;;;5023597;28;20527;-86
2021/09/27 01:58:48;;;;;;;16.00;13.57;;;17.40;99.90;;;;;;5023981;28;20453;-86
2021/09/27 02:01:24;;;;;;;16.43;14.73;;;17.30;99.90;;;;;;5022381;28;20448;-86
2021/09/27 02:03:58;;;;;;;17.37;14.80;;;17.40;99.90;;;;;;5024063;28;20535;-86
2021/09/27 02:06:31;;;;;;;17.80;14.60;;;17.40;99.90;;;;;;5024386;28;20493;-86
2021/09/27 02:09:03;;;;;;;17.70;13.77;;;17.40;99.90;;;;;;5029658;28;20466;-86
2021/09/27 02:11:32;;;;;;;15.70;13.60;;;17.30;99.90;;;;;;5028659;28;20550;-86
2021/09/27 02:14:06;;;;;;;16.90;14.47;;;17.20;99.90;;;;;;5026239;28;20503;-85
2021/09/27 02:16:40;;;;;;;16.77;14.40;;;17.20;99.90;;;;;;5019163;28;20522;-86
2021/09/27 02:19:17;;;;;;;16.47;14.57;;;17.20;99.90;;;;;;5013433;28;20475;-86
2021/09/27 02:21:50;;;;;;;16.40;13.93;;;17.30;99.90;;;;;;5026567;28;20471;-86
2021/09/27 02:24:23;;;;;;;15.60;13.87;;;17.40;99.90;;;;;;5027639;28;20491;-86
2021/09/27 02:26:51;;;;;;;17.23;14.10;;;17.30;99.90;;;;;;5026781;28;20431;-86
2021/09/27 02:29:18;;;;;;;17.00;14.30;;;17.50;99.90;;;;;;5026927;28;20455;-86
2021/09/27 02:31:56;;;;;;;14.63;13.10;;;17.40;99.90;;;;;;5026866;28;20445;-86
2021/09/27 02:34:33;;;;;;;18.60;13.43;;;17.50;99.90;;;;;;5026006;28;20499;-86
2021/09/27 02:37:05;;;;;;;18.33;14.47;;;17.40;99.90;;;;;;5033394;28;20441;-86
2021/09/27 02:39:37;;;;;;;16.70;14.40;;;17.30;99.90;;;;;;5020504;28;20456;-85
2021/09/27 02:42:08;;;;;;;15.03;13.13;;;17.20;99.90;;;;;;5026221;28;20446;-86
2021/09/27 02:44:36;;;;;;;16.07;13.73;;;17.10;99.90;;;;;;5005002;28;20476;-85
2021/09/27 02:47:05;;;;;;;17.30;13.93;;;17.00;99.90;;;;;;5009459;28;20495;-86
2021/09/27 02:49:44;;;;;;;15.13;13.57;;;17.00;99.90;;;;;;5025094;28;20457;-85
2021/09/27 02:52:13;;;;;;;14.50;12.20;;;17.20;99.90;;;;;;5032088;28;20459;-86
2021/09/27 02:54:43;;;;;;;17.53;14.90;;;17.10;99.90;;;;;;5031940;28;20525;-86
2021/09/27 02:57:27;;;;;;;16.90;13.80;;;17.10;99.90;;;;;;5029686;28;20540;-86
2021/09/27 03:00:05;;;;;;;18.37;12.87;;;17.00;99.90;;;;;;5026485;28;20479;-85
2021/09/27 03:02:43;;;;;;;15.40;13.17;;;17.10;99.90;;;;;;5022918;28;20814;-86
2021/09/27 03:05:21;;;;;;;14.90;12.90;;;17.20;99.90;;;;;;5023869;28;20840;-86
2021/09/27 03:08:01;;;;;;;14.57;12.67;;;17.20;99.90;;;;;;5026976;28;20451;-86
2021/09/27 03:10:38;;;;;;;17.60;13.83;;;17.50;99.90;;;;;;5025001;28;20984;-85
2021/09/27 03:13:11;;;;;;;17.83;13.20;;;17.50;99.90;;;;;;5029667;28;20689;-86
2021/09/27 03:16:02;;;;;;;13.83;12.33;;;17.40;99.90;;;;;;5034213;28;20514;-86
2021/09/27 03:18:47;;;;;;;16.03;12.93;;;17.30;99.90;;;;;;5007106;28;20441;-86
2021/09/27 03:21:34;;;;;;;15.87;13.40;;;17.20;99.90;;;;;;5017928;28;20423;-86
2021/09/27 03:24:16;;;;;;;15.17;13.17;;;17.30;99.90;;;;;;5024004;28;20441;-86
2021/09/27 03:26:53;;;;;;;17.83;13.37;;;17.30;99.90;;;;;;5023477;28;20827;-86
2021/09/27 03:29:29;;;;;;;15.13;13.47;;;17.30;99.90;;;;;;5024886;28;20433;-86
2021/09/27 03:32:05;;;;;;;15.33;13.30;;;17.30;99.90;;;;;;5023896;28;20955;-86
2021/09/27 03:34:38;;;;;;;16.97;12.97;;;17.30;99.90;;;;;;5023559;28;20492;-86
2021/09/27 03:37:17;;;;;;;16.83;13.40;;;17.30;99.90;;;;;;5025867;28;20442;-86
2021/09/27 03:39:55;;;;;;;16.70;13.47;;;17.30;99.90;;;;;;5026645;28;20762;-86
2021/09/27 03:42:33;;;;;;;19.20;14.43;;;17.30;99.90;;;;;;5025511;28;20412;-86
2021/09/27 03:45:06;;;;;;;17.93;13.60;;;17.30;99.90;;;;;;5024464;28;20470;-87
2021/09/27 03:47:37;;;;;;;16.97;13.87;;;17.20;99.90;;;;;;5005735;28;20445;-86
2021/09/27 03:50:16;;;;;;;21.40;12.80;;;17.30;99.90;;;;;;5013481;28;20460;-86
2021/09/27 03:52:48;;;;;;;17.33;14.27;;;17.20;99.90;;;;;;5023992;28;20533;-86
2021/09/27 03:55:20;;;;;;;14.80;12.63;;;17.20;99.90;;;;;;5023740;28;20580;-86
2021/09/27 03:57:50;;;;;;;18.90;14.17;;;17.40;99.90;;;;;;5023122;28;20445;-86
2021/09/27 04:00:24;;;;;;;16.90;12.47;;;17.40;99.90;;;;;;5025017;28;20507;-86
2021/09/27 04:02:55;;;;;;;14.90;12.10;;;17.40;99.90;;;;;;5024807;28;20759;-86
2021/09/27 04:05:31;;;;;;;16.73;13.70;;;17.40;99.90;;;;;;5018365;28;20475;-86
2021/09/27 04:08:09;;;;;;;16.33;14.00;;;17.40;99.90;;;;;;5018614;28;20498;-87
2021/09/27 04:10:51;;;;;;;16.60;13.13;;;17.50;99.90;;;;;;5020941;28;20828;-86
2021/09/27 04:13:28;;;;;;;14.77;13.03;;;17.50;99.90;;;;;;5024264;28;20925;-86
2021/09/27 04:16:15;;;;;;;16.27;13.27;;;17.50;99.90;;;;;;5015848;28;20474;-86
2021/09/27 04:18:57;;;;;;;17.40;12.90;;;17.70;99.90;;;;;;5031922;28;20460;-86
2021/09/27 04:21:32;;;;;;;17.87;14.73;;;17.60;99.90;;;;;;5032429;28;20438;-86
2021/09/27 04:24:13;;;;;;;18.40;13.50;;;17.60;99.90;;;;;;5025948;28;20792;-86
2021/09/27 04:26:57;;;;;;;16.63;13.40;;;17.50;99.90;;;;;;5024803;28;20828;-86
2021/09/27 04:29:47;;;;;;;17.00;13.37;;;17.60;99.90;;;;;;5024448;28;20493;-86
2021/09/27 04:32:21;;;;;;;18.53;14.10;;;17.60;99.90;;;;;;5025564;28;20418;-86
2021/09/27 04:35:00;;;;;;;15.73;13.10;;;17.60;99.90;;;;;;5024534;28;20916;-86
2021/09/27 04:37:29;;;;;;;17.20;13.30;;;17.70;99.90;;;;;;5024953;28;20468;-86
2021/09/27 04:39:58;;;;;;;15.80;13.50;;;17.60;99.90;;;;;;5024499;28;20521;-86
2021/09/27 04:42:55;;;;;;;14.70;13.10;;;17.60;99.90;;;;;;5026534;28;20517;-87
2021/09/27 04:45:55;;;;;;;15.07;12.63;;;17.50;99.90;;;;;;5006780;28;20545;-87
2021/09/27 04:48:58;;;;;;;15.33;12.67;;;17.40;99.90;;;;;;5023888;28;21004;-87
2021/09/27 04:51:38;;;;;;;17.20;13.90;;;17.40;99.90;;;;;;5027337;28;20531;-87
2021/09/27 04:54:36;;;;;;;17.80;13.60;;;17.30;99.90;;;;;;5024755;28;20914;-86
2021/09/27 04:57:18;;;;;;;17.63;14.13;;;17.30;99.90;;;;;;5032209;28;20426;-87
2021/09/27 04:59:54;;;;;;;16.67;13.90;;;17.20;99.90;;;;;;5007689;28;20460;-87
2021/09/27 05:02:39;;;;;;;17.37;15.37;;;17.10;99.90;;;;;;5014911;28;20480;-86
2021/09/27 05:05:15;;;;;;;22.57;15.30;;;17.00;99.90;;;;;;5023014;28;20859;-87
2021/09/27 05:08:20;;;;;;;18.63;14.00;;;17.00;99.90;;;;;;5023824;28;20510;-82
2021/09/27 05:11:10;;;;;;;17.90;14.03;;;17.10;99.90;;;;;;4964977;29;20984;-82
2021/09/27 05:14:09;;;;;;;18.20;13.60;;;17.10;99.90;;;;;;5004094;28;20533;-82
2021/09/27 05:16:49;;;;;;;17.90;14.40;;;17.00;99.90;;;;;;5011161;28;20447;-82
2021/09/27 05:19:30;;;;;;;20.37;13.80;;;17.10;99.90;;;;;;5023583;28;20474;-82
2021/09/27 05:22:18;;;;;;;18.87;14.00;;;17.20;99.90;;;;;;5015654;28;20424;-82
2021/09/27 05:25:13;;;;;;;15.80;13.37;;;17.20;99.90;;;;;;5023344;28;20531;-82
2021/09/27 05:28:06;;;;;;;17.30;13.07;;;17.10;99.90;;;;;;5019409;28;20441;-82
2021/09/27 05:30:50;;;;;;;14.80;13.10;;;17.10;99.90;;;;;;5020737;28;20510;-82
2021/09/27 05:33:35;;;;;;;14.87;12.10;;;17.10;99.90;;;;;;5023023;28;20506;-82
2021/09/27 05:36:12;;;;;;;16.40;14.00;;;17.00;99.90;;;;;;5023295;28;20471;-87
2021/09/27 05:38:52;;;;;;;16.17;12.47;;;17.10;99.90;;;;;;5021536;28;20451;-84
2021/09/27 05:41:30;;;;;;;15.70;12.70;;;17.10;99.90;;;;;;5011803;28;20446;-85
2021/09/27 05:44:17;;;;;;;20.63;13.50;;;17.10;99.90;;;;;;5005017;28;20571;-83
2021/09/27 05:47:04;;;;;;;19.10;14.40;;;17.10;99.90;;;;;;5052796;23;20537;-78
2021/09/27 05:49:42;;;;;;;18.00;14.77;;;17.10;99.90;;;;;;5054013;28;20446;-77
2021/09/27 05:52:16;;;;;;;17.67;14.27;;;16.90;99.90;;;;;;5059233;28;20947;-78
2021/09/27 05:54:50;;;;;;;20.23;14.67;;;16.90;99.90;;;;;;5056821;28;20444;-80
2021/09/27 05:57:28;;;;;;;17.40;14.80;;;16.80;99.90;;;;;;5029233;28;20478;-80
2021/09/27 06:00:03;;;;;;;25.67;14.57;;;16.80;99.90;;;;;;5021216;28;20412;-79
2021/09/27 06:02:44;;;;;;;18.00;14.20;;;16.70;99.90;;;;;;5020962;28;20443;-79
2021/09/27 06:05:18;;;;;;;20.00;14.67;;;16.70;99.90;;;;;;5020037;28;20434;-80
2021/09/27 06:07:53;;;;;;;16.37;13.90;;;16.70;99.90;;;;;;5034011;28;20447;-80
2021/09/27 06:10:26;;;;;;;18.60;13.73;;;16.80;99.90;;;;;;5039682;28;20920;-79
2021/09/27 06:13:05;;;;;;;17.63;14.40;;;16.70;99.90;;;;;;5038461;28;20905;-79
2021/09/27 06:15:40;;;;;;;17.20;14.00;;;16.80;99.90;;;;;;5038010;28;20475;-78
2021/09/27 06:18:14;;;;;;;17.80;13.87;;;16.70;99.90;;;;;;5038599;28;20505;-78
2021/09/27 06:20:58;;;;;;;20.80;13.97;;;16.80;99.90;;;;;;5039119;28;20798;-78
2021/09/27 06:23:43;;;;;;;15.90;13.53;;;16.90;99.90;;;;;;5034286;28;20440;-79
2021/09/27 06:26:13;;;;;;;17.03;13.50;;;16.90;99.90;;;;;;5040914;28;20402;-81
2021/09/27 06:28:47;;;;;;;16.50;13.87;;;16.90;99.90;;;;;;5039196;28;20458;-82
2021/09/27 06:31:24;;;;;;;17.30;13.23;;;17.00;99.90;;;;;;5037654;28;20409;-78
2021/09/27 06:33:56;;;;;;;15.70;12.93;;;17.10;99.90;;;;;;5037709;28;20842;-79
2021/09/27 06:36:29;;;;;;;17.40;13.60;;;17.20;99.90;;;;;;5037630;28;20462;-78
2021/09/27 06:38:59;;;;;;;16.17;12.20;;;17.30;99.90;;;;;;5029655;28;20448;-79
2021/09/27 06:41:31;;;;;;;17.20;13.50;;;17.40;99.90;;;;;;5034858;28;20540;-80
2021/09/27 06:43:57;;;;;;;18.47;14.50;;;17.40;99.90;;;;;;5041326;28;20415;-80
2021/09/27 06:46:25;;;;;;;17.50;13.97;;;17.50;99.90;;;;;;5040059;28;20499;-78
2021/09/27 06:48:51;;;;;;;15.90;13.27;;;17.50;99.90;;;;;;5039128;28;20455;-80
2021/09/27 06:51:19;;;;;;;16.17;13.00;;;17.50;99.90;;;;;;5038863;28;20434;-80
2021/09/27 06:53:47;;;;;;;15.50;11.97;;;17.50;99.90;;;;;;5038725;28;20467;-80
2021/09/27 06:56:14;;;;;;;17.60;12.03;;;17.50;99.90;;;;;;5041398;28;20486;-80
2021/09/27 06:58:41;;;;;;;17.60;13.50;;;17.60;99.90;;;;;;5045262;28;20508;-79
2021/09/27 07:01:08;;;;;;;14.67;11.93;;;17.70;99.90;;;;;;5039702;28;20484;-79
2021/09/27 07:03:35;;;;;;;15.50;12.27;;;17.70;99.90;;;;;;5040796;28;20452;-79
2021/09/27 07:06:01;;;;;;;13.30;11.83;;;17.70;99.90;;;;;;5039991;28;20459;-80
2021/09/27 07:08:29;;;;;;;14.17;11.23;;;17.90;99.90;;;;;;5021976;28;20432;-80
2021/09/27 07:10:57;;;;;;;16.60;13.20;;;18.00;99.90;;;;;;5024926;28;20434;-79
2021/09/27 07:13:24;;;;;;;13.37;11.90;;;18.00;99.90;;;;;;5039931;28;20459;-78
2021/09/27 07:15:51;;;;;;;15.03;11.33;;;18.00;99.90;;;;;;5043921;28;20492;-79
2021/09/27 07:18:18;;;;;;;14.00;11.90;;;18.10;99.90;;;;;;5037861;28;20465;-79
2021/09/27 07:20:45;;;;;;;14.73;11.17;;;18.20;99.90;;;;;;5038780;28;20518;-80
2021/09/27 07:23:12;;;;;;;15.23;10.90;;;18.20;99.90;;;;;;5038683;28;20456;-79
2021/09/27 07:25:38;;;;;;;11.20;9.53;;;18.20;99.90;;;;;;5040135;28;20622;-79
2021/09/27 07:28:07;;;;;;;13.03;10.60;;;18.30;99.90;;;;;;5049560;28;20470;-79
2021/09/27 07:30:35;;;;;;;13.07;10.33;;;18.30;99.90;;;;;;5051543;28;20492;-79
2021/09/27 07:33:03;;;;;;;10.53;8.50;;;18.40;99.90;;;;;;5042929;28;20450;-79
2021/09/27 07:35:32;;;;;;;11.93;9.57;;;18.40;99.90;;;;;;5027205;28;20496;-79
2021/09/27 07:37:59;;;;;;;16.80;10.33;;;18.50;99.90;;;;;;5036319;28;20526;-80
2021/09/27 07:40:28;;;;;;;12.40;9.40;;;18.50;99.90;;;;;;5039107;28;20495;-80
2021/09/27 07:42:55;;;;;;;13.30;9.77;;;18.60;99.90;;;;;;5038945;28;20419;-80
2021/09/27 07:45:24;;;;;;;14.03;9.83;;;18.70;99.90;;;;;;5037396;28;20886;-79
2021/09/27 07:47:51;;;;;;;10.60;8.73;;;18.80;99.90;;;;;;5029836;28;20488;-78
2021/09/27 07:50:18;;;;;;;11.17;9.63;;;18.80;99.90;;;;;;5037042;28;20457;-80
2021/09/27 07:52:45;;;;;;;12.20;9.80;;;18.90;99.90;;;;;;5037529;28;20453;-80
2021/09/27 07:55:14;;;;;;;12.50;10.40;;;18.90;99.90;;;;;;5037809;28;20462;-80
2021/09/27 07:57:40;;;;;;;13.27;10.23;;;18.90;99.90;;;;;;5037629;28;20472;-80
2021/09/27 08:00:09;;;;;;;11.87;9.87;;;19.00;99.90;;;;;;5037705;28;20449;-80
2021/09/27 08:02:37;;;;;;;11.30;9.43;;;19.10;99.90;;;;;;5036614;28;20453;-80
2021/09/27 08:05:05;;;;;;;12.90;8.97;;;19.20;99.90;;;;;;5037956;28;20469;-80
2021/09/27 08:07:32;;;;;;;11.30;9.20;;;19.30;99.90;;;;;;5036834;28;20472;-80
2021/09/27 08:09:58;;;;;;;10.30;8.57;;;19.20;99.90;;;;;;5037979;28;20455;-80
2021/09/27 08:12:25;;;;;;;12.70;9.67;;;19.40;99.90;;;;;;5037411;28;20444;-80
2021/09/27 08:14:54;;;;;;;10.73;9.13;;;19.50;99.90;;;;;;5036825;28;20453;-80
2021/09/27 08:17:21;;;;;;;12.00;8.47;;;19.60;99.90;;;;;;5028669;28;20471;-78
2021/09/27 08:19:49;;;;;;;12.60;8.67;;;19.70;99.90;;;;;;5049950;28;20493;-78
2021/09/27 08:22:16;;;;;;;9.27;8.10;;;19.80;99.90;;;;;;5043332;28;20480;-81
2021/09/27 08:24:43;;;;;;;10.80;8.70;;;19.80;99.90;;;;;;5031072;28;20451;-78
2021/09/27 08:27:10;;;;;;;7.70;6.90;;;20.00;99.90;;;;;;5036932;28;20556;-78
2021/09/27 08:29:37;;;;;;;10.57;7.80;;;20.00;99.90;;;;;;5029868;28;20950;-79
2021/09/27 08:32:04;;;;;;;9.17;6.50;;;20.10;99.90;;;;;;5017917;28;20446;-80
2021/09/27 08:34:31;;;;;;;12.30;7.40;;;20.20;99.90;;;;;;5017502;28;20458;-80
2021/09/27 08:36:59;;;;;;;8.80;7.40;;;20.20;99.90;;;;;;5016867;28;20489;-79
2021/09/27 08:39:26;;;;;;;8.50;7.60;;;20.20;99.90;;;;;;5017503;28;20458;-79
2021/09/27 08:41:56;;;;;;;9.37;6.50;;;20.40;99.90;;;;;;5029463;28;20451;-80
2021/09/27 08:44:42;;;;;;;6.97;5.93;;;20.40;99.90;;;;;;5036940;28;20446;-81
2021/09/27 08:47:15;;;;;;;7.23;6.03;;;20.40;99.90;;;;;;5036945;28;20576;-80
2021/09/27 08:49:48;;;;;;;7.20;5.67;;;20.50;99.90;;;;;;5034197;28;20450;-81
2021/09/27 08:52:18;;;;;;;6.40;4.90;;;20.60;99.90;;;;;;5028507;28;20416;-81
2021/09/27 08:54:48;;;;;;;6.37;5.23;;;20.60;99.90;;;;;;5036445;28;20481;-81
2021/09/27 08:57:34;;;;;;;7.90;5.87;;;20.70;99.90;;;;;;5036935;28;20519;-81
2021/09/27 09:00:13;;;;;;;7.20;5.43;;;20.80;99.90;;;;;;5031439;28;20565;-78
2021/09/27 09:02:52;;;;;;;7.60;5.60;;;20.90;99.90;;;;;;5022588;28;20459;-80
2021/09/27 09:05:24;;;;;;;6.00;5.13;;;20.90;99.90;;;;;;5016739;28;20419;-80
2021/09/27 09:08:01;;;;;;;7.33;5.07;;;20.90;99.90;;;;;;5018221;28;20540;-78
2021/09/27 09:10:41;;;;;;;6.03;4.60;;;21.00;99.90;;;;;;5035553;28;20469;-80
2021/09/27 09:13:13;;;;;;;7.20;5.53;;;20.90;99.90;;;;;;5038134;28;20443;-80
2021/09/27 09:15:42;;;;;;;7.53;5.13;;;21.00;99.90;;;;;;5036429;28;20473;-80
2021/09/27 09:18:13;;;;;;;6.13;4.43;;;21.00;99.90;;;;;;5037035;28;20514;-80
2021/09/27 09:20:46;;;;;;;5.43;4.30;;;21.10;99.90;;;;;;5037922;28;20462;-78
2021/09/27 09:23:21;;;;;;;6.27;4.17;;;21.20;99.90;;;;;;5036307;28;20473;-82
2021/09/27 09:25:48;;;;;;;5.20;3.90;;;21.30;99.90;;;;;;5029248;28;20433;-81
2021/09/27 09:28:15;;;;;;;7.33;4.27;;;21.30;99.90;;;;;;5041231;28;20499;-80
2021/09/27 09:30:50;;;;;;;6.80;4.70;;;21.40;99.90;;;;;;5036166;28;20459;-80
2021/09/27 09:33:41;;;;;;;7.33;4.60;;;21.40;99.90;;;;;;5035967;28;20508;-80
2021/09/27 09:36:11;;;;;;;5.70;4.40;;;21.50;99.90;;;;;;5035678;28;20485;-80
2021/09/27 09:38:40;;;;;;;6.63;4.80;;;21.50;99.90;;;;;;5036512;28;20971;-80
2021/09/27 09:41:08;;;;;;;6.40;3.70;;;21.60;99.90;;;;;;5037179;28;20532;-80
2021/09/27 09:43:37;;;;;;;7.33;4.73;;;21.80;99.90;;;;;;5035931;28;20810;-80
2021/09/27 09:46:08;;;;;;;5.17;3.93;;;21.90;99.90;;;;;;5035132;28;20449;-80
2021/09/27 09:48:37;;;;;;;5.77;4.43;;;22.00;99.90;;;;;;5035526;28;20468;-80
2021/09/27 09:51:21;;;;;;;10.37;4.97;;;21.90;99.90;;;;;;5035840;28;20464;-81
2021/09/27 09:54:04;;;;;;;6.67;4.40;;;22.10;99.90;;;;;;5035457;28;20812;-77
2021/09/27 09:56:34;;;;;;;8.83;4.80;;;22.20;99.90;;;;;;5035495;28;20495;-80
2021/09/27 09:59:01;;;;;;;7.30;5.40;;;22.30;99.90;;;;;;5035626;28;20449;-80
2021/09/27 10:01:32;;;;;;;5.87;4.23;;;22.40;99.90;;;;;;5032333;28;20906;-80
2021/09/27 10:04:02;;;;;;;5.90;4.00;;;22.30;99.90;;;;;;5034500;28;20453;-80
2021/09/27 10:06:37;;;;;;;7.60;4.70;;;22.20;99.90;;;;;;5036405;28;20475;-80
2021/09/27 10:09:08;;;;;;;6.20;4.73;;;22.30;99.90;;;;;;5036193;28;20447;-80
2021/09/27 10:11:38;;;;;;;5.93;4.40;;;22.40;99.90;;;;;;5036330;28;20914;-80
2021/09/27 10:14:21;;;;;;;9.20;4.17;;;22.40;99.90;;;;;;5035683;28;20461;-81
2021/09/27 10:16:51;;;;;;;6.23;4.40;;;22.40;99.90;;;;;;5035014;28;20574;-80
2021/09/27 10:19:29;;;;;;;7.20;5.00;;;22.40;99.90;;;;;;5036248;28;20902;-80
2021/09/27 10:21:59;;;;;;;6.90;4.50;;;22.40;99.90;;;;;;5035958;28;20453;-80
2021/09/27 10:24:39;;;;;;;12.67;5.60;;;22.30;99.90;;;;;;5035819;28;20457;-80
2021/09/27 10:27:17;;;;;;;6.53;4.60;;;22.30;99.90;;;;;;5035233;28;20482;-80
2021/09/27 10:29:45;;;;;;;7.20;4.83;;;22.30;99.90;;;;;;5035276;28;20435;-79
2021/09/27 10:32:23;;;;;;;5.40;3.90;;;22.40;99.90;;;;;;5035531;28;20464;-79
2021/09/27 10:34:50;;;;;;;7.07;4.57;;;22.40;99.90;;;;;;5035869;28;20442;-79
2021/09/27 10:37:20;;;;;;;11.33;5.77;;;22.50;99.90;;;;;;5036718;28;20492;-80
2021/09/27 10:39:51;;;;;;;8.13;5.30;;;22.50;99.90;;;;;;5039520;28;20446;-80
2021/09/27 10:42:22;;;;;;;5.70;4.10;;;22.50;99.90;;;;;;5039616;28;20437;-80
2021/09/27 10:44:52;;;;;;;8.37;5.20;;;22.60;99.90;;;;;;5041376;28;20516;-80
2021/09/27 10:47:22;;;;;;;6.87;4.53;;;22.70;99.90;;;;;;5039356;28;20478;-80
2021/09/27 10:49:54;;;;;;;6.27;4.47;;;22.80;99.90;;;;;;5039148;28;20434;-80
2021/09/27 10:52:41;;;;;;;6.17;3.90;;;22.80;99.90;;;;;;5039327;28;20549;-79
2021/09/27 10:55:18;;;;;;;6.90;4.13;;;22.80;99.90;;;;;;5038465;28;20452;-80
2021/09/27 10:57:52;;;;;;;6.40;3.57;;;22.80;99.90;;;;;;5039204;28;20485;-79
2021/09/27 11:00:30;;;;;;;7.33;3.60;;;22.80;99.90;;;;;;5039691;28;20533;-79
2021/09/27 11:03:03;;;;;;;5.73;3.50;;;22.80;99.90;;;;;;5038910;28;20442;-79
2021/09/27 11:05:44;;;;;;;5.27;4.20;;;23.00;99.90;;;;;;5038267;28;20484;-79
2021/09/27 11:08:14;;;;;;;21.43;11.70;;;23.00;99.90;;;;;;5038709;28;20816;-80
2021/09/27 11:10:45;;;;;;;7.63;4.77;;;23.00;99.90;;;;;;5038523;28;20444;-80
2021/09/27 11:13:36;;;;;;;8.40;4.50;;;23.00;99.90;;;;;;5038524;28;20450;-83
2021/09/27 11:16:07;;;;;;;5.90;3.90;;;23.00;99.90;;;;;;5028924;28;20434;-80
2021/09/27 11:18:34;;;;;;;5.60;3.50;;;23.10;99.90;;;;;;5038145;28;20472;-80
2021/09/27 11:21:18;;;;;;;5.47;3.97;;;23.30;99.90;;;;;;5039138;28;20456;-79
2021/09/27 11:23:45;;;;;;;4.40;2.87;;;23.30;99.90;;;;;;5040409;28;20450;-80
2021/09/27 11:26:31;;;;;;;7.83;3.33;;;23.30;99.90;;;;;;5039340;28;20453;-80
2021/09/27 11:29:32;;;;;;;4.60;3.20;;;23.10;99.90;;;;;;5021797;28;20461;-79
2021/09/27 11:32:42;;;;;;;5.60;3.70;;;23.10;99.90;;;;;;5043049;28;20446;-77
2021/09/27 11:35:12;;;;;;;5.07;3.40;;;23.10;99.90;;;;;;5044467;28;20935;-77
2021/09/27 11:38:23;;;;;;;4.43;2.90;;;23.20;99.90;;;;;;5026997;28;20492;-77
2021/09/27 11:40:54;;;;;;;5.13;3.13;;;23.30;99.80;;;;;;4964314;29;20579;-77
2021/09/27 11:43:34;;;;;;;7.17;3.87;;;23.30;99.90;;;;;;5017647;28;20457;-81
2021/09/27 11:46:19;;;;;;;8.80;3.97;;;23.40;99.90;;;;;;5017695;28;20887;-80
2021/09/27 11:48:55;;;;;;;4.90;2.90;;;23.40;99.60;;;;;;5054765;23;20505;-81
2021/09/27 11:51:32;;;;;;;4.37;3.17;;;23.40;99.70;;;;;;5046326;28;20445;-81
2021/09/27 11:54:23;;;;;;;5.20;3.60;;;23.30;99.40;;;;;;5046829;28;20910;-81
2021/09/27 11:56:59;;;;;;;5.03;3.40;;;23.40;99.70;;;;;;5047075;28;20549;-82
2021/09/27 11:59:35;;;;;;;5.20;3.40;;;23.60;99.80;;;;;;5047061;28;20553;-83
2021/09/27 12:02:20;;;;;;;5.90;3.80;;;23.60;99.60;;;;;;5041041;28;20447;-82
2021/09/27 12:05:05;;;;;;;4.97;3.50;;;23.80;99.60;;;;;;5027768;28;20494;-81
2021/09/27 12:07:43;;;;;;;5.53;3.83;;;23.80;99.40;;;;;;5032165;28;20465;-82
2021/09/27 12:10:15;;;;;;;5.03;3.30;;;23.90;99.20;;;;;;5045643;28;20524;-82
2021/09/27 12:12:44;;;;;;;8.40;3.70;;;24.00;99.10;;;;;;5046625;28;20469;-81
2021/09/27 12:15:14;;;;;;;7.30;3.70;;;24.20;98.70;;;;;;5043332;28;20457;-81
2021/09/27 12:17:43;;;;;;;7.70;3.33;;;24.10;98.10;;;;;;5028863;28;20545;-82
2021/09/27 12:20:14;;;;;;;5.67;3.30;;;24.20;98.40;;;;;;5028838;28;20438;-82
2021/09/27 12:22:47;;;;;;;5.70;3.57;;;24.10;98.40;;;;;;5037090;28;20479;-81
2021/09/27 12:25:18;;;;;;;11.33;4.83;;;24.10;98.10;;;;;;5045755;28;20430;-81
2021/09/27 12:27:51;;;;;;;7.47;4.30;;;24.10;97.90;;;;;;5046146;28;20509;-81
2021/09/27 12:30:22;;;;;;;6.57;3.40;;;24.10;98.20;;;;;;5045610;28;20503;-82
2021/09/27 12:32:53;;;;;;;5.90;3.43;;;24.10;98.20;;;;;;5042581;28;20449;-83
2021/09/27 12:35:24;;;;;;;6.33;3.17;;;24.10;97.60;;;;;;5033082;28;20501;-87
2021/09/27 12:37:54;;;;;;;5.00;3.37;;;24.20;98.10;;;;;;5036806;28;20497;-79
2021/09/27 12:40:23;;;;;;;5.23;3.77;;;24.30;97.80;;;;;;5029466;28;20581;-86
2021/09/27 12:42:53;;;;;;;5.67;4.07;;;24.10;97.70;;;;;;5044754;28;20533;-86
2021/09/27 12:45:27;;;;;;;4.40;3.00;;;24.30;98.00;;;;;;5045077;28;20449;-87
2021/09/27 12:48:07;;;;;;;5.13;3.47;;;24.30;97.80;;;;;;5043810;28;20477;-87
2021/09/27 12:50:35;;;;;;;6.77;4.23;;;24.50;97.70;;;;;;5040792;28;20488;-83
2021/09/27 12:53:07;;;;;;;8.20;3.60;;;24.40;97.90;;;;;;5036556;28;20553;-83
2021/09/27 12:55:41;;;;;;;5.57;3.40;;;24.40;98.00;;;;;;5036654;28;20506;-85
2021/09/27 12:58:17;;;;;;;6.60;3.40;;;24.50;98.10;;;;;;5043462;28;20489;-83
2021/09/27 13:00:46;;;;;;;5.50;3.87;;;24.50;98.20;;;;;;5043923;28;20445;-83
2021/09/27 13:03:21;;;;;;;4.83;3.33;;;24.40;98.40;;;;;;5045904;28;20492;-83
2021/09/27 13:05:52;;;;;;;4.47;3.30;;;24.40;98.40;;;;;;5044605;28;20445;-83
2021/09/27 13:08:25;;;;;;;4.50;3.40;;;24.40;98.00;;;;;;5042006;28;20493;-83
2021/09/27 13:10:57;;;;;;;7.23;3.70;;;24.30;97.90;;;;;;5045985;28;20437;-83
2021/09/27 13:13:32;;;;;;;6.63;3.63;;;24.40;97.70;;;;;;5044695;28;20542;-84